createdAt,value
2018-12-13T00:00:45.927Z,20.10
2018-12-13T00:01:46.032Z,19.30
2018-12-13T00:02:45.794Z,21.60
2018-12-13T00:03:45.738Z,20.50
2018-12-13T00:04:45.690Z,17.70
2018-12-13T00:05:45.632Z,21.00
2018-12-13T00:06:45.603Z,19.80
2018-12-13T00:07:45.522Z,20.10
2018-12-13T00:08:45.634Z,19.90
2018-12-13T00:09:45.413Z,19.90
2018-12-13T00:10:45.358Z,22.90
2018-12-13T00:11:45.304Z,18.30
2018-12-13T00:12:45.252Z,20.80
2018-12-13T00:13:45.220Z,18.00
2018-12-13T00:14:45.140Z,20.60
2018-12-13T00:15:45.123Z,18.90
2018-12-13T00:16:45.031Z,19.40
2018-12-13T00:17:45.142Z,17.20
2018-12-13T00:18:44.924Z,19.30
2018-12-13T00:19:44.868Z,21.50
2018-12-13T00:20:44.815Z,17.00
2018-12-13T00:21:44.762Z,18.90
2018-12-13T00:22:44.708Z,18.80
2018-12-13T00:23:44.651Z,18.90
2018-12-13T00:24:44.737Z,18.00
2018-12-13T00:25:44.544Z,18.30
2018-12-13T00:26:44.490Z,19.40
2018-12-13T00:27:44.430Z,18.20
2018-12-13T00:28:44.382Z,19.40
2018-12-13T00:29:44.324Z,18.50
2018-12-13T00:30:44.270Z,21.10
2018-12-13T00:31:44.442Z,20.50
2018-12-13T00:32:44.163Z,20.20
2018-12-13T00:33:44.111Z,21.80
2018-12-13T00:34:44.053Z,20.60
2018-12-13T00:35:43.999Z,20.90
2018-12-13T00:36:43.970Z,19.60
2018-12-13T00:37:43.893Z,21.60
2018-12-13T00:38:44.055Z,22.30
2018-12-13T00:39:43.788Z,17.90
2018-12-13T00:40:43.728Z,19.60
2018-12-13T00:41:43.672Z,18.80
2018-12-13T00:42:43.619Z,17.20
2018-12-13T00:43:43.589Z,17.40
2018-12-13T00:44:43.511Z,18.70
2018-12-13T00:45:43.492Z,19.10
2018-12-13T00:46:43.404Z,19.50
2018-12-13T00:47:43.561Z,19.00
2018-12-13T00:48:43.294Z,19.20
2018-12-13T00:49:43.239Z,21.00
2018-12-13T00:50:43.185Z,20.20
2018-12-13T00:51:43.130Z,18.90
2018-12-13T00:52:43.100Z,18.80
2018-12-13T00:53:43.021Z,18.60
2018-12-13T00:54:43.162Z,19.50
2018-12-13T00:55:42.914Z,20.10
2018-12-13T00:56:42.859Z,21.10
2018-12-13T00:57:42.804Z,18.90
2018-12-13T00:58:42.750Z,18.10
2018-12-13T00:59:42.697Z,18.60
2018-12-13T01:00:42.643Z,18.30
2018-12-13T01:01:42.753Z,20.40
2018-12-13T01:02:42.536Z,20.20
2018-12-13T01:03:42.480Z,19.50
2018-12-13T01:04:42.426Z,20.00
2018-12-13T01:05:42.377Z,19.90
2018-12-13T01:06:46.015Z,21.20
2018-12-13T01:07:42.262Z,21.10
2018-12-13T01:08:42.373Z,21.00
2018-12-13T01:09:42.157Z,20.60
2018-12-13T01:10:42.100Z,19.60
2018-12-13T01:11:42.046Z,22.10
2018-12-13T01:12:41.997Z,20.50
2018-12-13T01:13:41.963Z,20.90
2018-12-13T01:14:41.884Z,22.20
2018-12-13T01:15:41.871Z,22.10
2018-12-13T01:16:41.774Z,22.80
2018-12-13T01:17:41.871Z,18.90
2018-12-13T01:18:41.667Z,22.00
2018-12-13T01:19:41.611Z,22.60
2018-12-13T01:20:41.748Z,22.50
2018-12-13T01:21:41.504Z,22.10
2018-12-13T01:22:41.479Z,18.90
2018-12-13T01:23:41.396Z,21.40
2018-12-13T01:24:41.570Z,22.60
2018-12-13T01:25:41.285Z,21.80
2018-12-13T01:26:41.232Z,20.90
2018-12-13T01:27:41.178Z,20.60
2018-12-13T01:28:41.123Z,20.80
2018-12-13T01:29:41.070Z,20.70
2018-12-13T01:30:41.018Z,20.90
2018-12-13T01:31:40.986Z,21.40
2018-12-13T01:32:40.907Z,21.20
2018-12-13T01:33:41.069Z,22.30
2018-12-13T01:34:40.799Z,21.70
2018-12-13T01:35:40.742Z,23.50
2018-12-13T01:36:40.690Z,23.10
2018-12-13T01:37:40.635Z,21.80
2018-12-13T01:38:40.581Z,24.00
2018-12-13T01:39:40.527Z,23.60
2018-12-13T01:40:40.500Z,23.60
2018-12-13T01:41:40.421Z,23.70
2018-12-13T01:42:40.582Z,22.90
2018-12-13T01:43:40.312Z,24.00
2018-12-13T01:44:40.255Z,23.80
2018-12-13T01:45:40.202Z,23.70
2018-12-13T01:46:40.146Z,28.30
2018-12-13T01:47:40.093Z,27.10
2018-12-13T01:48:40.041Z,24.30
2018-12-13T01:49:40.010Z,24.50
2018-12-13T01:50:39.929Z,25.80
2018-12-13T01:51:40.091Z,25.40
2018-12-13T01:52:39.820Z,27.20
2018-12-13T01:53:39.766Z,26.80
2018-12-13T01:54:39.713Z,24.90
2018-12-13T01:55:39.658Z,26.90
2018-12-13T01:56:39.605Z,27.20
2018-12-13T01:57:39.550Z,25.70
2018-12-13T01:58:39.522Z,25.60
2018-12-13T01:59:39.440Z,27.60
2018-12-13T02:00:39.583Z,26.50
2018-12-13T02:01:39.337Z,27.10
2018-12-13T02:02:39.292Z,28.60
2018-12-13T02:03:39.223Z,30.20
2018-12-13T02:04:39.170Z,30.00
2018-12-13T02:05:39.117Z,28.60
2018-12-13T02:06:39.066Z,29.10
2018-12-13T02:07:39.007Z,27.00
2018-12-13T02:08:38.953Z,30.10
2018-12-13T02:09:38.921Z,28.20
2018-12-13T02:10:38.845Z,28.00
2018-12-13T02:11:38.992Z,30.90
2018-12-13T02:12:38.734Z,29.20
2018-12-13T02:13:38.680Z,30.70
2018-12-13T02:14:38.626Z,31.50
2018-12-13T02:15:38.569Z,30.00
2018-12-13T02:16:38.518Z,33.80
2018-12-13T02:17:38.474Z,29.70
2018-12-13T02:18:38.426Z,31.40
2018-12-13T02:19:38.355Z,32.40
2018-12-13T02:20:38.499Z,30.00
2018-12-13T02:21:38.249Z,29.60
2018-12-13T02:22:38.192Z,29.40
2018-12-13T02:23:38.135Z,30.10
2018-12-13T02:24:38.081Z,31.70
2018-12-13T02:25:38.064Z,32.20
2018-12-13T02:26:37.973Z,31.30
2018-12-13T02:27:37.946Z,31.20
2018-12-13T02:28:37.863Z,30.40
2018-12-13T02:29:37.998Z,31.80
2018-12-13T02:30:37.760Z,31.00
2018-12-13T02:31:37.702Z,30.30
2018-12-13T02:32:37.646Z,31.70
2018-12-13T02:33:37.593Z,31.50
2018-12-13T02:34:37.539Z,31.60
2018-12-13T02:35:37.490Z,29.80
2018-12-13T02:36:37.453Z,33.10
2018-12-13T02:37:37.383Z,32.00
2018-12-13T02:38:37.501Z,28.80
2018-12-13T02:39:37.264Z,32.10
2018-12-13T02:40:37.214Z,28.90
2018-12-13T02:41:37.158Z,29.30
2018-12-13T02:42:37.103Z,27.10
2018-12-13T02:43:37.049Z,28.20
2018-12-13T02:44:36.993Z,29.90
2018-12-13T02:45:36.966Z,28.20
2018-12-13T02:46:36.885Z,26.40
2018-12-13T02:47:37.009Z,28.20
2018-12-13T02:48:36.778Z,28.40
2018-12-13T02:49:36.731Z,26.50
2018-12-13T02:50:36.669Z,28.20
2018-12-13T02:51:36.617Z,28.70
2018-12-13T02:52:36.561Z,28.20
2018-12-13T02:53:36.506Z,26.50
2018-12-13T02:54:36.475Z,27.00
2018-12-13T02:55:36.398Z,28.10
2018-12-13T02:56:36.507Z,27.40
2018-12-13T02:57:36.307Z,27.40
2018-12-13T02:58:36.238Z,28.50
2018-12-13T02:59:36.181Z,28.00
2018-12-13T03:00:36.127Z,30.50
2018-12-13T03:01:36.156Z,26.80
2018-12-13T03:02:36.016Z,26.20
2018-12-13T03:03:35.962Z,28.40
2018-12-13T03:04:35.906Z,27.20
2018-12-13T03:05:35.879Z,26.10
2018-12-13T03:06:35.802Z,26.20
2018-12-13T03:07:35.922Z,26.90
2018-12-13T03:08:35.692Z,27.20
2018-12-13T03:09:35.714Z,26.00
2018-12-13T03:10:35.581Z,28.00
2018-12-13T03:11:35.528Z,26.80
2018-12-13T03:12:35.473Z,27.00
2018-12-13T03:13:35.419Z,25.80
2018-12-13T03:14:35.367Z,25.50
2018-12-13T03:15:35.315Z,27.20
2018-12-13T03:16:35.422Z,25.60
2018-12-13T03:17:35.203Z,30.60
2018-12-13T03:18:35.146Z,25.90
2018-12-13T03:19:35.093Z,25.00
2018-12-13T03:20:35.044Z,25.70
2018-12-13T03:21:34.989Z,27.10
2018-12-13T03:22:34.931Z,24.30
2018-12-13T03:23:34.892Z,26.20
2018-12-13T03:24:34.821Z,24.30
2018-12-13T03:25:34.846Z,25.90
2018-12-13T03:26:34.713Z,23.90
2018-12-13T03:27:34.659Z,24.60
2018-12-13T03:28:34.606Z,25.00
2018-12-13T03:29:34.551Z,27.90
2018-12-13T03:30:34.496Z,26.60
2018-12-13T03:31:34.442Z,24.70
2018-12-13T03:32:34.412Z,26.20
2018-12-13T03:33:34.332Z,28.00
2018-12-13T03:34:34.428Z,24.60
2018-12-13T03:35:34.222Z,24.60
2018-12-13T03:36:34.171Z,25.10
2018-12-13T03:37:34.117Z,25.00
2018-12-13T03:38:34.061Z,25.00
2018-12-13T03:39:34.005Z,25.90
2018-12-13T03:40:33.950Z,26.90
2018-12-13T03:41:33.899Z,25.50
2018-12-13T03:42:33.845Z,26.10
2018-12-13T03:43:33.935Z,25.20
2018-12-13T03:44:33.732Z,24.00
2018-12-13T03:45:33.679Z,25.40
2018-12-13T03:46:33.627Z,25.20
2018-12-13T03:47:33.569Z,26.00
2018-12-13T03:48:33.519Z,25.90
2018-12-13T03:49:33.460Z,25.90
2018-12-13T03:50:33.431Z,25.10
2018-12-13T03:51:33.352Z,26.60
2018-12-13T03:52:33.433Z,23.10
2018-12-13T03:53:33.241Z,24.90
2018-12-13T03:54:33.188Z,24.50
2018-12-13T03:55:33.133Z,26.00
2018-12-13T03:56:33.079Z,27.70
2018-12-13T03:57:33.022Z,25.60
2018-12-13T03:58:32.970Z,27.00
2018-12-13T03:59:32.914Z,25.90
2018-12-13T04:00:32.861Z,25.60
2018-12-13T04:01:33.042Z,26.10
2018-12-13T04:02:32.752Z,26.40
2018-12-13T04:03:32.698Z,29.20
2018-12-13T04:04:32.643Z,27.20
2018-12-13T04:05:32.588Z,25.20
2018-12-13T04:06:32.533Z,24.40
2018-12-13T04:07:32.476Z,27.30
2018-12-13T04:08:32.453Z,24.50
2018-12-13T04:09:32.379Z,26.40
2018-12-13T04:10:32.544Z,23.70
2018-12-13T04:11:32.370Z,26.00
2018-12-13T04:12:32.206Z,27.10
2018-12-13T04:13:32.158Z,27.00
2018-12-13T04:14:32.096Z,26.00
2018-12-13T04:15:32.041Z,26.50
2018-12-13T04:16:31.986Z,28.00
2018-12-13T04:17:31.962Z,25.90
2018-12-13T04:18:31.875Z,25.70
2018-12-13T04:19:32.055Z,26.40
2018-12-13T04:20:31.768Z,29.80
2018-12-13T04:21:31.715Z,26.20
2018-12-13T04:22:31.658Z,28.40
2018-12-13T04:23:31.604Z,28.80
2018-12-13T04:24:31.559Z,27.70
2018-12-13T04:25:31.495Z,25.70
2018-12-13T04:26:31.466Z,26.60
2018-12-13T04:27:31.387Z,26.70
2018-12-13T04:28:31.564Z,27.00
2018-12-13T04:29:31.277Z,27.10
2018-12-13T04:30:31.225Z,26.10
2018-12-13T04:31:31.165Z,27.10
2018-12-13T04:32:31.112Z,25.20
2018-12-13T04:33:31.060Z,27.80
2018-12-13T04:34:31.002Z,26.90
2018-12-13T04:35:30.972Z,28.50
2018-12-13T04:36:30.893Z,26.90
2018-12-13T04:37:35.292Z,26.10
2018-12-13T04:38:30.784Z,27.90
2018-12-13T04:39:30.729Z,26.90
2018-12-13T04:40:30.675Z,27.60
2018-12-13T04:41:30.620Z,28.20
2018-12-13T04:42:30.569Z,28.40
2018-12-13T04:43:30.512Z,26.50
2018-12-13T04:44:30.455Z,28.60
2018-12-13T04:45:30.402Z,27.90
2018-12-13T04:46:30.373Z,29.90
2018-12-13T04:47:30.291Z,27.10
2018-12-13T04:48:30.464Z,28.30
2018-12-13T04:49:30.184Z,27.20
2018-12-13T04:50:30.129Z,27.00
2018-12-13T04:51:30.073Z,28.10
2018-12-13T04:52:30.020Z,28.30
2018-12-13T04:53:29.965Z,30.70
2018-12-13T04:54:29.911Z,28.90
2018-12-13T04:55:29.880Z,29.80
2018-12-13T04:56:29.801Z,29.00
2018-12-13T04:57:29.961Z,28.60
2018-12-13T04:58:29.692Z,27.20
2018-12-13T04:59:29.642Z,28.30
2018-12-13T05:00:29.584Z,30.20
2018-12-13T05:01:29.527Z,27.40
2018-12-13T05:02:29.473Z,27.20
2018-12-13T05:03:29.418Z,27.40
2018-12-13T05:04:29.395Z,26.60
2018-12-13T05:05:29.308Z,29.10
2018-12-13T05:06:29.482Z,26.70
2018-12-13T05:07:29.200Z,29.00
2018-12-13T05:08:29.146Z,27.20
2018-12-13T05:09:29.088Z,28.60
2018-12-13T05:10:29.035Z,30.40
2018-12-13T05:11:28.979Z,31.30
2018-12-13T05:12:28.923Z,26.70
2018-12-13T05:13:28.902Z,27.70
2018-12-13T05:14:28.815Z,26.50
2018-12-13T05:15:28.800Z,30.20
2018-12-13T05:16:28.706Z,27.40
2018-12-13T05:17:28.973Z,28.00
2018-12-13T05:18:28.596Z,28.80
2018-12-13T05:19:28.543Z,28.40
2018-12-13T05:20:28.490Z,28.80
2018-12-13T05:21:28.433Z,29.30
2018-12-13T05:22:28.378Z,29.00
2018-12-13T05:23:28.322Z,30.00
2018-12-13T05:24:28.292Z,33.70
2018-12-13T05:25:28.214Z,30.00
2018-12-13T05:26:28.379Z,30.40
2018-12-13T05:27:28.114Z,32.60
2018-12-13T05:28:28.050Z,30.40
2018-12-13T05:29:27.995Z,32.10
2018-12-13T05:30:27.943Z,30.00
2018-12-13T05:31:27.886Z,31.70
2018-12-13T05:32:27.831Z,30.00
2018-12-13T05:33:27.807Z,28.90
2018-12-13T05:34:27.731Z,32.30
2018-12-13T05:35:27.888Z,31.30
2018-12-13T05:36:27.613Z,31.40
2018-12-13T05:37:27.560Z,30.10
2018-12-13T05:38:27.502Z,29.60
2018-12-13T05:39:27.448Z,30.50
2018-12-13T05:40:27.395Z,29.70
2018-12-13T05:41:27.336Z,31.20
2018-12-13T05:42:27.309Z,32.60
2018-12-13T05:43:27.229Z,31.90
2018-12-13T05:44:27.241Z,30.00
2018-12-13T05:45:27.120Z,29.40
2018-12-13T05:46:27.287Z,29.90
2018-12-13T05:47:27.009Z,29.30
2018-12-13T05:48:26.956Z,31.20
2018-12-13T05:49:26.900Z,30.00
2018-12-13T05:50:26.847Z,30.10
2018-12-13T05:51:26.790Z,29.70
2018-12-13T05:52:26.736Z,29.80
2018-12-13T05:53:26.708Z,29.40
2018-12-13T05:54:26.628Z,28.00
2018-12-13T05:55:26.803Z,30.80
2018-12-13T05:56:26.517Z,30.00
2018-12-13T05:57:26.461Z,33.10
2018-12-13T05:58:26.407Z,33.10
2018-12-13T05:59:26.352Z,32.50
2018-12-13T06:00:26.299Z,33.30
2018-12-13T06:01:26.242Z,33.40
2018-12-13T06:02:26.219Z,32.50
2018-12-13T06:03:26.224Z,31.60
2018-12-13T06:04:26.300Z,31.10
2018-12-13T06:05:26.031Z,29.60
2018-12-13T06:06:25.970Z,32.70
2018-12-13T06:07:25.917Z,36.00
2018-12-13T06:08:25.861Z,32.10
2018-12-13T06:09:25.805Z,35.00
2018-12-13T06:10:25.750Z,33.30
2018-12-13T06:11:25.695Z,31.30
2018-12-13T06:12:25.641Z,31.20
2018-12-13T06:13:25.594Z,31.40
2018-12-13T06:14:25.533Z,33.20
2018-12-13T06:15:25.516Z,33.60
2018-12-13T06:16:25.422Z,33.80
2018-12-13T06:17:25.598Z,32.60
2018-12-13T06:18:25.314Z,32.70
2018-12-13T06:19:26.792Z,33.40
2018-12-13T06:20:25.205Z,33.40
2018-12-13T06:21:25.156Z,33.50
2018-12-13T06:22:25.097Z,34.00
2018-12-13T06:23:25.043Z,32.10
2018-12-13T06:24:24.993Z,32.60
2018-12-13T06:25:24.929Z,32.50
2018-12-13T06:26:24.878Z,34.30
2018-12-13T06:27:24.826Z,34.90
2018-12-13T06:28:24.767Z,32.90
2018-12-13T06:29:24.714Z,32.80
2018-12-13T06:30:24.660Z,34.00
2018-12-13T06:31:24.611Z,35.10
2018-12-13T06:32:24.549Z,32.20
2018-12-13T06:33:24.914Z,35.20
2018-12-13T06:34:24.439Z,35.80
2018-12-13T06:35:24.381Z,34.60
2018-12-13T06:36:24.365Z,33.40
2018-12-13T06:37:24.276Z,35.00
2018-12-13T06:38:24.424Z,32.00
2018-12-13T06:39:24.169Z,31.60
2018-12-13T06:40:24.116Z,32.00
2018-12-13T06:41:24.060Z,33.80
2018-12-13T06:42:24.036Z,36.90
2018-12-13T06:43:23.951Z,36.50
2018-12-13T06:44:23.906Z,32.20
2018-12-13T06:45:23.842Z,34.80
2018-12-13T06:46:24.497Z,31.90
2018-12-13T06:47:23.726Z,37.10
2018-12-13T06:48:23.670Z,33.60
2018-12-13T06:49:23.619Z,34.10
2018-12-13T06:50:23.566Z,35.40
2018-12-13T06:51:23.512Z,34.20
2018-12-13T06:52:23.701Z,35.10
2018-12-13T06:53:23.440Z,31.00
2018-12-13T06:54:23.368Z,32.90
2018-12-13T06:55:23.362Z,33.20
2018-12-13T06:56:23.244Z,34.40
2018-12-13T06:57:23.190Z,33.20
2018-12-13T06:58:23.122Z,33.50
2018-12-13T06:59:23.069Z,33.70
2018-12-13T07:00:23.014Z,30.40
2018-12-13T07:01:22.986Z,34.50
2018-12-13T07:02:22.926Z,33.70
2018-12-13T07:03:22.848Z,34.10
2018-12-13T07:04:22.795Z,35.00
2018-12-13T07:05:22.741Z,36.10
2018-12-13T07:06:22.688Z,33.90
2018-12-13T07:07:33.420Z,32.50
2018-12-13T07:08:22.579Z,34.00
2018-12-13T07:09:22.529Z,34.30
2018-12-13T07:10:22.466Z,32.80
2018-12-13T07:11:22.410Z,34.30
2018-12-13T07:12:22.366Z,35.40
2018-12-13T07:13:22.301Z,32.00
2018-12-13T07:14:22.289Z,35.40
2018-12-13T07:15:22.190Z,32.90
2018-12-13T07:16:22.140Z,34.00
2018-12-13T07:17:22.083Z,33.90
2018-12-13T07:18:22.127Z,35.10
2018-12-13T07:19:21.977Z,34.20
2018-12-13T07:20:21.930Z,36.70
2018-12-13T07:21:21.864Z,35.50
2018-12-13T07:23:53.864Z,34.70
2018-12-13T07:24:53.762Z,37.70
2018-12-13T07:25:53.714Z,35.50
2018-12-13T07:26:53.662Z,38.00
2018-12-13T07:27:53.603Z,35.90
2018-12-13T07:28:53.566Z,36.40
2018-12-13T07:29:53.494Z,38.90
2018-12-13T07:30:53.448Z,35.50
2018-12-13T07:31:53.381Z,37.50
2018-12-13T07:32:53.331Z,38.50
2018-12-13T07:33:53.274Z,37.70
2018-12-13T07:34:53.225Z,36.70
2018-12-13T07:35:53.165Z,35.90
2018-12-13T07:36:53.105Z,37.30
2018-12-13T07:37:53.061Z,36.40
2018-12-13T07:38:52.999Z,38.30
2018-12-13T07:39:52.948Z,36.70
2018-12-13T07:40:52.891Z,35.00
2018-12-13T07:41:52.836Z,37.60
2018-12-13T07:42:52.787Z,39.10
2018-12-13T07:43:52.731Z,37.00
2018-12-13T07:44:52.670Z,36.80
2018-12-13T07:45:52.615Z,36.90
2018-12-13T07:46:52.562Z,34.40
2018-12-13T07:47:52.507Z,35.90
2018-12-13T07:48:56.469Z,36.90
2018-12-13T07:49:52.396Z,36.80
2018-12-13T07:50:52.342Z,39.00
2018-12-13T07:51:52.287Z,37.60
2018-12-13T07:52:52.232Z,40.30
2018-12-13T07:55:33.733Z,40.20
2018-12-13T07:56:33.710Z,35.70
2018-12-13T07:57:33.600Z,37.70
2018-12-13T07:58:33.542Z,40.30
2018-12-13T07:59:33.500Z,39.20
2018-12-13T08:00:33.435Z,39.40
2018-12-13T08:01:33.397Z,38.70
2018-12-13T08:02:33.324Z,35.80
2018-12-13T08:03:33.271Z,36.30
2018-12-13T08:04:33.213Z,37.70
2018-12-13T08:05:33.366Z,38.00
2018-12-13T08:06:33.106Z,39.40
2018-12-13T08:07:33.055Z,38.90
2018-12-13T08:08:32.999Z,38.40
2018-12-13T08:09:32.947Z,35.50
2018-12-13T08:10:32.890Z,37.90
2018-12-13T08:11:32.840Z,40.80
2018-12-13T08:12:32.781Z,43.20
2018-12-13T08:13:32.726Z,39.00
2018-12-13T08:14:32.666Z,36.40
2018-12-13T08:15:32.611Z,39.70
2018-12-13T08:16:32.557Z,39.00
2018-12-13T08:17:32.506Z,39.80
2018-12-13T08:18:32.454Z,39.60
2018-12-13T08:19:32.387Z,37.10
2018-12-13T08:20:32.347Z,39.20
2018-12-13T08:21:32.285Z,39.70
2018-12-13T08:22:32.230Z,39.90
2018-12-13T08:23:32.180Z,42.10
2018-12-13T08:24:32.130Z,40.80
2018-12-13T08:25:32.119Z,48.20
2018-12-13T08:26:32.022Z,43.20
2018-12-13T08:27:31.971Z,46.10
2018-12-13T08:28:31.905Z,41.40
2018-12-13T08:29:31.851Z,45.30
2018-12-13T08:30:32.028Z,47.30
2018-12-13T08:33:08.283Z,42.60
2018-12-13T08:34:08.202Z,39.80
2018-12-13T08:35:08.243Z,39.50
2018-12-13T08:36:08.107Z,42.90
2018-12-13T08:37:08.038Z,43.20
2018-12-13T08:38:07.990Z,39.00
2018-12-13T08:39:07.928Z,40.20
2018-12-13T08:40:07.881Z,43.40
2018-12-13T08:41:07.818Z,41.20
2018-12-13T08:42:07.765Z,40.10
2018-12-13T08:43:07.714Z,42.00
2018-12-13T08:44:07.658Z,45.10
2018-12-13T08:45:07.620Z,43.00
2018-12-13T08:46:07.549Z,43.30
2018-12-13T08:47:07.683Z,39.90
2018-12-13T08:48:07.448Z,47.50
2018-12-13T08:49:07.390Z,47.50
2018-12-13T08:50:07.330Z,41.40
2018-12-13T08:51:07.279Z,43.40
2018-12-13T08:52:07.219Z,44.10
2018-12-13T08:53:07.172Z,42.90
2018-12-13T08:54:07.119Z,41.40
2018-12-13T08:55:07.057Z,44.70
2018-12-13T08:56:07.009Z,48.50
2018-12-13T08:57:06.964Z,43.60
2018-12-13T08:58:06.892Z,42.00
2018-12-13T08:59:06.839Z,45.70
2018-12-13T09:00:06.781Z,46.70
2018-12-13T09:01:06.733Z,42.60
2018-12-13T09:02:06.674Z,46.40
2018-12-13T09:03:06.620Z,49.30
2018-12-13T09:04:06.569Z,41.10
2018-12-13T09:05:06.570Z,42.40
2018-12-13T09:06:06.451Z,49.60
2018-12-13T09:07:06.400Z,45.70
2018-12-13T09:08:06.357Z,48.50
2018-12-13T09:09:06.304Z,48.70
2018-12-13T09:10:06.242Z,46.80
2018-12-13T09:11:06.181Z,45.40
2018-12-13T09:12:06.294Z,47.40
2018-12-13T09:13:06.082Z,47.60
2018-12-13T09:14:06.054Z,47.60
2018-12-13T09:15:05.970Z,46.50
2018-12-13T09:16:05.941Z,51.00
2018-12-13T09:17:05.894Z,50.10
2018-12-13T09:18:05.828Z,46.20
2018-12-13T09:19:05.751Z,50.50
2018-12-13T09:20:05.697Z,44.70
2018-12-13T09:21:06.148Z,48.30
2018-12-13T09:22:05.589Z,46.70
2018-12-13T09:23:05.525Z,45.10
2018-12-13T09:24:05.478Z,49.80
2018-12-13T09:25:05.422Z,48.20
2018-12-13T09:26:05.367Z,49.40
2018-12-13T09:27:05.310Z,46.50
2018-12-13T09:28:05.261Z,45.70
2018-12-13T09:29:05.194Z,48.50
2018-12-13T09:30:05.146Z,44.80
2018-12-13T09:31:05.091Z,48.00
2018-12-13T09:32:05.038Z,50.30
2018-12-13T09:33:04.985Z,48.90
2018-12-13T09:34:04.968Z,47.30
2018-12-13T09:35:04.904Z,45.10
2018-12-13T09:36:04.833Z,43.60
2018-12-13T09:37:04.767Z,49.00
2018-12-13T09:38:04.720Z,49.00
2018-12-13T09:39:04.664Z,46.40
2018-12-13T09:40:04.601Z,47.20
2018-12-13T09:41:04.550Z,46.80
2018-12-13T09:42:04.617Z,47.80
2018-12-13T09:43:04.451Z,46.60
2018-12-13T09:44:04.392Z,46.30
2018-12-13T09:45:04.496Z,46.40
2018-12-13T09:46:04.267Z,44.50
2018-12-13T09:47:04.222Z,44.70
2018-12-13T09:48:04.180Z,43.90
2018-12-13T09:49:04.119Z,44.20
2018-12-13T09:50:04.057Z,43.40
2018-12-13T09:51:04.004Z,44.10
2018-12-13T09:52:04.012Z,41.90
2018-12-13T09:53:03.903Z,43.90
2018-12-13T09:54:03.861Z,41.40
2018-12-13T09:55:05.779Z,41.50
2018-12-13T09:56:03.736Z,41.90
2018-12-13T09:57:03.672Z,41.70
2018-12-13T09:58:03.731Z,41.10
2018-12-13T09:59:03.570Z,42.20
2018-12-13T10:00:03.523Z,39.40
2018-12-13T10:01:03.453Z,41.00
2018-12-13T10:02:03.422Z,41.20
2018-12-13T10:03:03.361Z,37.20
2018-12-13T10:04:03.304Z,41.40
2018-12-13T10:05:03.246Z,39.30
2018-12-13T10:06:03.220Z,37.10
2018-12-13T10:07:03.156Z,42.00
2018-12-13T10:08:03.390Z,37.80
2018-12-13T10:09:03.071Z,39.10
2018-12-13T10:10:02.965Z,38.90
2018-12-13T10:11:02.995Z,39.00
2018-12-13T10:12:02.867Z,39.30
2018-12-13T10:13:02.842Z,38.20
2018-12-13T10:14:02.759Z,37.40
2018-12-13T10:15:02.741Z,41.20
2018-12-13T10:16:02.689Z,36.70
2018-12-13T10:18:34.751Z,39.00
2018-12-13T10:19:34.548Z,38.60
2018-12-13T10:20:34.610Z,36.70
2018-12-13T10:21:34.449Z,38.20
2018-12-13T10:22:34.386Z,36.00
2018-12-13T10:23:34.328Z,37.60
2018-12-13T10:24:34.302Z,35.20
2018-12-13T10:25:34.217Z,36.90
2018-12-13T10:26:34.166Z,37.60
2018-12-13T10:27:34.111Z,36.10
2018-12-13T10:28:34.093Z,35.70
2018-12-13T10:29:34.004Z,35.90
2018-12-13T10:30:33.949Z,36.30
2018-12-13T10:31:33.894Z,33.70
2018-12-13T10:32:33.851Z,34.00
2018-12-13T10:33:34.383Z,34.80
2018-12-13T10:34:33.739Z,30.30
2018-12-13T10:35:33.678Z,31.50
2018-12-13T10:36:33.625Z,33.80
2018-12-13T10:37:33.575Z,32.90
2018-12-13T10:38:33.518Z,27.80
2018-12-13T10:39:33.470Z,30.90
2018-12-13T10:40:33.408Z,30.80
2018-12-13T10:41:33.354Z,34.00
2018-12-13T10:42:33.363Z,29.30
2018-12-13T10:43:33.245Z,29.10
2018-12-13T10:44:33.198Z,28.50
2018-12-13T10:45:33.164Z,32.30
2018-12-13T10:46:33.084Z,30.90
2018-12-13T10:47:33.023Z,30.20
2018-12-13T10:48:32.999Z,29.70
2018-12-13T10:49:32.922Z,31.50
2018-12-13T10:50:32.869Z,30.70
2018-12-13T10:51:33.043Z,27.80
2018-12-13T10:52:32.759Z,29.00
2018-12-13T10:53:32.708Z,31.50
2018-12-13T10:54:32.660Z,33.20
2018-12-13T10:55:32.599Z,30.20
2018-12-13T10:56:32.552Z,31.90
2018-12-13T10:57:32.493Z,32.40
2018-12-13T10:58:32.442Z,31.90
2018-12-13T10:59:32.389Z,29.20
2018-12-13T11:00:32.330Z,30.50
2018-12-13T11:01:32.286Z,31.40
2018-12-13T11:02:32.222Z,28.40
2018-12-13T11:03:32.167Z,29.10
2018-12-13T11:04:32.114Z,28.00
2018-12-13T11:05:32.060Z,27.60
2018-12-13T11:06:32.005Z,29.60
2018-12-13T11:07:31.958Z,28.90
2018-12-13T11:08:31.897Z,27.80
2018-12-13T11:09:31.839Z,29.20
2018-12-13T11:10:31.793Z,28.30
2018-12-13T11:11:31.751Z,31.10
2018-12-13T11:12:31.857Z,29.50
2018-12-13T11:13:31.638Z,29.80
2018-12-13T11:14:31.576Z,28.30
2018-12-13T11:15:31.524Z,29.60
2018-12-13T11:16:31.469Z,27.30
2018-12-13T11:17:31.414Z,28.50
2018-12-13T11:18:31.360Z,29.00
2018-12-13T11:19:31.304Z,28.00
2018-12-13T11:20:31.250Z,24.50
2018-12-13T11:21:31.211Z,24.90
2018-12-13T11:22:31.149Z,24.80
2018-12-13T11:23:31.137Z,24.20
2018-12-13T11:24:31.046Z,25.40
2018-12-13T11:25:30.987Z,29.70
2018-12-13T11:26:30.932Z,28.40
2018-12-13T11:27:30.890Z,29.80
2018-12-13T11:28:30.825Z,30.30
2018-12-13T11:29:30.770Z,31.80
2018-12-13T11:30:30.717Z,31.50
2018-12-13T11:31:30.662Z,29.70
2018-12-13T11:32:30.609Z,29.90
2018-12-13T11:33:30.572Z,31.70
2018-12-13T11:34:30.500Z,34.70
2018-12-13T11:35:30.455Z,35.00
2018-12-13T11:36:30.418Z,32.90
2018-12-13T11:37:30.342Z,31.60
2018-12-13T11:38:30.287Z,31.40
2018-12-13T11:39:30.233Z,31.00
2018-12-13T11:40:30.194Z,32.90
2018-12-13T11:41:33.735Z,34.00
2018-12-13T11:42:30.105Z,31.30
2018-12-13T11:43:30.016Z,32.70
2018-12-13T11:44:29.962Z,31.50
2018-12-13T11:45:29.944Z,33.60
2018-12-13T11:46:29.861Z,32.00
2018-12-13T11:47:29.804Z,30.00
2018-12-13T11:48:29.789Z,32.90
2018-12-13T11:49:29.856Z,34.70
2018-12-13T11:50:29.645Z,33.70
2018-12-13T11:51:29.581Z,34.00
2018-12-13T11:52:29.544Z,34.10
2018-12-13T11:53:29.500Z,33.90
2018-12-13T11:54:29.430Z,33.70
2018-12-13T11:55:29.370Z,32.60
2018-12-13T11:56:29.322Z,33.50
2018-12-13T11:57:29.267Z,29.70
2018-12-13T11:58:29.259Z,30.40
2018-12-13T11:59:29.156Z,32.00
2018-12-13T12:00:29.109Z,31.80
2018-12-13T12:01:29.053Z,31.60
2018-12-13T12:02:28.998Z,31.30
2018-12-13T12:03:28.952Z,33.00
2018-12-13T12:04:28.893Z,31.80
2018-12-13T12:05:28.834Z,33.50
2018-12-13T12:06:28.789Z,33.00
2018-12-13T12:07:28.734Z,33.90
2018-12-13T12:08:28.695Z,33.40
2018-12-13T12:09:28.634Z,31.00
2018-12-13T12:10:28.595Z,35.10
2018-12-13T12:11:28.550Z,32.00
2018-12-13T12:12:28.482Z,33.10
2018-12-13T12:13:28.425Z,32.50
2018-12-13T12:14:28.374Z,33.00
2018-12-13T12:15:28.326Z,29.80
2018-12-13T12:16:28.267Z,34.50
2018-12-13T12:17:28.218Z,30.60
2018-12-13T12:18:28.172Z,30.90
2018-12-13T12:19:28.092Z,27.60
2018-12-13T12:20:28.049Z,30.70
2018-12-13T12:21:27.983Z,30.70
2018-12-13T12:22:27.940Z,31.00
2018-12-13T12:23:27.870Z,30.00
2018-12-13T12:24:27.823Z,28.50
2018-12-13T12:25:27.757Z,30.40
2018-12-13T12:26:27.705Z,31.90
2018-12-13T12:27:27.670Z,32.30
2018-12-13T12:28:27.608Z,32.20
2018-12-13T12:29:27.552Z,30.80
2018-12-13T12:30:27.491Z,29.20
2018-12-13T12:31:27.462Z,29.00
2018-12-13T12:32:27.395Z,33.80
2018-12-13T12:33:27.337Z,30.60
2018-12-13T12:34:27.335Z,29.90
2018-12-13T12:35:27.243Z,29.10
2018-12-13T12:36:27.177Z,29.60
2018-12-13T12:37:27.111Z,32.00
2018-12-13T12:38:27.084Z,30.30
2018-12-13T12:39:27.083Z,29.60
2018-12-13T12:40:26.967Z,29.80
2018-12-13T12:41:26.913Z,29.40
2018-12-13T12:42:26.865Z,31.60
2018-12-13T12:43:26.817Z,30.00
2018-12-13T12:44:26.765Z,30.50
2018-12-13T12:45:26.697Z,32.00
2018-12-13T12:46:26.674Z,30.50
2018-12-13T12:47:26.602Z,30.90
2018-12-13T12:48:26.531Z,32.40
2018-12-13T12:49:26.486Z,30.70
2018-12-13T12:50:26.412Z,31.50
2018-12-13T12:51:26.360Z,34.10
2018-12-13T12:52:26.332Z,33.50
2018-12-13T12:53:26.282Z,34.00
2018-12-13T12:54:26.200Z,32.40
2018-12-13T12:55:26.211Z,33.60
2018-12-13T12:56:26.107Z,33.30
2018-12-13T12:57:26.035Z,32.80
2018-12-13T12:58:25.998Z,32.10